sensor_id;sensor_type;location;lat;lon;timestamp;temperature;humidity
50947;DHT22;36955;47.416;7.716;2023-01-01T00:02:25;14.90;99.90
50947;DHT22;36955;47.416;7.716;2023-01-01T00:04:51;14.90;99.90
50947;DHT22;36955;47.416;7.716;2023-01-01T00:07:17;14.90;99.90
50947;DHT22;36955;47.416;7.716;2023-01-01T00:09:43;15.00;99.90
50947;DHT22;36955;47.416;7.716;2023-01-01T00:12:09;15.00;99.90
50947;DHT22;36955;47.416;7.716;2023-01-01T00:14:35;15.20;99.90
50947;DHT22;36955;47.416;7.716;2023-01-01T00:17:01;15.40;99.90
50947;DHT22;36955;47.416;7.716;2023-01-01T00:19:27;15.40;99.90
50947;DHT22;36955;47.416;7.716;2023-01-01T00:21:53;15.40;99.90
50947;DHT22;36955;47.416;7.716;2023-01-01T00:24:19;15.40;99.90
50947;DHT22;36955;47.416;7.716;2023-01-01T00:26:45;15.50;99.90
50947;DHT22;36955;47.416;7.716;2023-01-01T00:29:11;15.50;99.90
50947;DHT22;36955;47.416;7.716;2023-01-01T00:31:37;15.50;99.90
50947;DHT22;36955;47.416;7.716;2023-01-01T00:34:03;15.40;99.90
50947;DHT22;36955;47.416;7.716;2023-01-01T00:36:29;15.30;99.90
50947;DHT22;36955;47.416;7.716;2023-01-01T00:38:55;15.30;99.90
50947;DHT22;36955;47.416;7.716;2023-01-01T00:41:22;15.20;99.90
50947;DHT22;36955;47.416;7.716;2023-01-01T00:43:48;15.00;99.90
50947;DHT22;36955;47.416;7.716;2023-01-01T00:46:14;14.80;99.90
50947;DHT22;36955;47.416;7.716;2023-01-01T00:48:40;14.70;99.90
50947;DHT22;36955;47.416;7.716;2023-01-01T00:51:07;14.60;99.90
50947;DHT22;36955;47.416;7.716;2023-01-01T00:53:33;14.50;99.90
50947;DHT22;36955;47.416;7.716;2023-01-01T00:55:59;14.40;99.90
50947;DHT22;36955;47.416;7.716;2023-01-01T00:58:25;14.20;99.90
50947;DHT22;36955;47.416;7.716;2023-01-01T01:00:52;14.10;99.90
50947;DHT22;36955;47.416;7.716;2023-01-01T01:03:19;14.00;99.90
50947;DHT22;36955;47.416;7.716;2023-01-01T01:05:45;13.90;99.90
50947;DHT22;36955;47.416;7.716;2023-01-01T01:08:11;13.80;99.90
50947;DHT22;36955;47.416;7.716;2023-01-01T01:10:37;13.80;99.90
50947;DHT22;36955;47.416;7.716;2023-01-01T01:13:03;13.80;99.90
50947;DHT22;36955;47.416;7.716;2023-01-01T01:15:29;13.90;99.90
50947;DHT22;36955;47.416;7.716;2023-01-01T01:17:55;14.40;99.90
50947;DHT22;36955;47.416;7.716;2023-01-01T01:20:21;14.80;99.90
50947;DHT22;36955;47.416;7.716;2023-01-01T01:22:47;15.10;99.90
50947;DHT22;36955;47.416;7.716;2023-01-01T01:25:13;15.30;99.90
50947;DHT22;36955;47.416;7.716;2023-01-01T01:27:39;15.30;99.90
50947;DHT22;36955;47.416;7.716;2023-01-01T01:30:05;15.40;99.90
50947;DHT22;36955;47.416;7.716;2023-01-01T01:32:32;15.50;99.90
50947;DHT22;36955;47.416;7.716;2023-01-01T01:34:58;15.60;99.90
50947;DHT22;36955;47.416;7.716;2023-01-01T01:37:24;15.60;99.90
50947;DHT22;36955;47.416;7.716;2023-01-01T01:39:50;15.60;99.90
50947;DHT22;36955;47.416;7.716;2023-01-01T01:42:17;15.50;99.90
50947;DHT22;36955;47.416;7.716;2023-01-01T01:44:56;15.50;99.90
50947;DHT22;36955;47.416;7.716;2023-01-01T01:50:00;15.70;99.90
50947;DHT22;36955;47.416;7.716;2023-01-01T01:52:27;15.60;99.90
50947;DHT22;36955;47.416;7.716;2023-01-01T01:54:54;15.70;99.90
50947;DHT22;36955;47.416;7.716;2023-01-01T01:57:21;15.90;99.90
50947;DHT22;36955;47.416;7.716;2023-01-01T01:59:49;16.10;99.90
50947;DHT22;36955;47.416;7.716;2023-01-01T02:02:33;16.30;99.90
50947;DHT22;36955;47.416;7.716;2023-01-01T02:05:00;16.60;99.90
50947;DHT22;36955;47.416;7.716;2023-01-01T02:07:29;16.70;99.90
50947;DHT22;36955;47.416;7.716;2023-01-01T02:09:57;16.80;99.90
50947;DHT22;36955;47.416;7.716;2023-01-01T02:12:24;16.90;99.90
50947;DHT22;36955;47.416;7.716;2023-01-01T02:14:51;16.80;99.90
50947;DHT22;36955;47.416;7.716;2023-01-01T02:17:51;16.80;99.90
50947;DHT22;36955;47.416;7.716;2023-01-01T02:20:35;16.70;99.90
50947;DHT22;36955;47.416;7.716;2023-01-01T02:23:24;16.70;99.90
50947;DHT22;36955;47.416;7.716;2023-01-01T02:29:35;16.80;99.90
50947;DHT22;36955;47.416;7.716;2023-01-01T02:32:07;16.90;99.90
50947;DHT22;36955;47.416;7.716;2023-01-01T02:34:58;17.00;99.90
50947;DHT22;36955;47.416;7.716;2023-01-01T02:37:27;17.00;99.90
50947;DHT22;36955;47.416;7.716;2023-01-01T02:39:56;17.00;99.90
50947;DHT22;36955;47.416;7.716;2023-01-01T02:42:26;17.00;99.90
50947;DHT22;36955;47.416;7.716;2023-01-01T02:44:55;17.00;99.90
50947;DHT22;36955;47.416;7.716;2023-01-01T02:47:22;17.10;99.90
50947;DHT22;36955;47.416;7.716;2023-01-01T02:50:03;17.10;99.90
50947;DHT22;36955;47.416;7.716;2023-01-01T02:52:59;17.10;99.90
50947;DHT22;36955;47.416;7.716;2023-01-01T02:58:19;17.20;99.90
50947;DHT22;36955;47.416;7.716;2023-01-01T03:00:50;17.20;99.90
50947;DHT22;36955;47.416;7.716;2023-01-01T03:03:28;17.20;99.90
50947;DHT22;36955;47.416;7.716;2023-01-01T03:11:38;17.30;99.90
50947;DHT22;36955;47.416;7.716;2023-01-01T03:17:05;17.30;99.90
50947;DHT22;36955;47.416;7.716;2023-01-01T03:19:37;17.30;99.90
50947;DHT22;36955;47.416;7.716;2023-01-01T03:22:08;17.30;99.90
50947;DHT22;36955;47.416;7.716;2023-01-01T03:24:59;17.20;99.90
50947;DHT22;36955;47.416;7.716;2023-01-01T03:27:31;17.20;99.90
50947;DHT22;36955;47.416;7.716;2023-01-01T03:30:02;17.20;99.90
50947;DHT22;36955;47.416;7.716;2023-01-01T03:32:58;17.20;99.90
50947;DHT22;36955;47.416;7.716;2023-01-01T03:35:29;17.20;99.90
50947;DHT22;36955;47.416;7.716;2023-01-01T03:37:59;17.20;99.90
50947;DHT22;36955;47.416;7.716;2023-01-01T03:40:27;17.20;99.90
50947;DHT22;36955;47.416;7.716;2023-01-01T03:43:01;17.20;99.90
50947;DHT22;36955;47.416;7.716;2023-01-01T03:45:32;17.20;99.90
50947;DHT22;36955;47.416;7.716;2023-01-01T03:48:00;17.20;99.90
50947;DHT22;36955;47.416;7.716;2023-01-01T03:55:47;17.10;99.90
50947;DHT22;36955;47.416;7.716;2023-01-01T03:58:39;16.90;99.90
50947;DHT22;36955;47.416;7.716;2023-01-01T04:01:26;16.90;99.90
50947;DHT22;36955;47.416;7.716;2023-01-01T04:03:56;17.00;99.90
50947;DHT22;36955;47.416;7.716;2023-01-01T04:06:24;17.10;99.90
50947;DHT22;36955;47.416;7.716;2023-01-01T04:08:52;17.20;99.90
50947;DHT22;36955;47.416;7.716;2023-01-01T04:11:23;17.10;99.90
50947;DHT22;36955;47.416;7.716;2023-01-01T04:13:49;17.00;99.90
50947;DHT22;36955;47.416;7.716;2023-01-01T04:16:15;17.00;99.90
50947;DHT22;36955;47.416;7.716;2023-01-01T04:18:42;16.90;99.90
50947;DHT22;36955;47.416;7.716;2023-01-01T04:21:08;16.90;99.90
50947;DHT22;36955;47.416;7.716;2023-01-01T04:23:34;17.00;99.90
50947;DHT22;36955;47.416;7.716;2023-01-01T04:26:00;17.00;99.90
50947;DHT22;36955;47.416;7.716;2023-01-01T04:28:26;16.90;99.90
50947;DHT22;36955;47.416;7.716;2023-01-01T04:30:52;16.90;99.90
50947;DHT22;36955;47.416;7.716;2023-01-01T04:33:18;16.80;99.90
50947;DHT22;36955;47.416;7.716;2023-01-01T04:35:44;16.80;99.90
50947;DHT22;36955;47.416;7.716;2023-01-01T04:38:13;16.90;99.90
50947;DHT22;36955;47.416;7.716;2023-01-01T04:40:39;16.90;99.90
50947;DHT22;36955;47.416;7.716;2023-01-01T04:43:05;16.90;99.90
50947;DHT22;36955;47.416;7.716;2023-01-01T04:45:31;16.80;99.90
50947;DHT22;36955;47.416;7.716;2023-01-01T04:48:03;16.80;99.90
50947;DHT22;36955;47.416;7.716;2023-01-01T04:50:29;16.70;99.90
50947;DHT22;36955;47.416;7.716;2023-01-01T04:52:57;16.70;99.90
50947;DHT22;36955;47.416;7.716;2023-01-01T04:55:23;16.60;99.90
50947;DHT22;36955;47.416;7.716;2023-01-01T04:57:49;16.60;99.90
50947;DHT22;36955;47.416;7.716;2023-01-01T05:00:15;16.70;99.90
50947;DHT22;36955;47.416;7.716;2023-01-01T05:02:41;16.60;99.90
50947;DHT22;36955;47.416;7.716;2023-01-01T05:05:07;16.70;99.90
50947;DHT22;36955;47.416;7.716;2023-01-01T05:07:33;16.70;99.90
50947;DHT22;36955;47.416;7.716;2023-01-01T05:09:59;16.60;99.90
50947;DHT22;36955;47.416;7.716;2023-01-01T05:12:25;16.60;99.90
50947;DHT22;36955;47.416;7.716;2023-01-01T05:14:54;16.50;99.90
50947;DHT22;36955;47.416;7.716;2023-01-01T05:17:20;16.50;99.90
50947;DHT22;36955;47.416;7.716;2023-01-01T05:19:46;16.50;99.90
50947;DHT22;36955;47.416;7.716;2023-01-01T05:22:12;16.50;99.90
50947;DHT22;36955;47.416;7.716;2023-01-01T05:24:38;16.50;99.90
50947;DHT22;36955;47.416;7.716;2023-01-01T05:27:04;16.40;99.90
50947;DHT22;36955;47.416;7.716;2023-01-01T05:29:30;16.30;99.90
50947;DHT22;36955;47.416;7.716;2023-01-01T05:31:56;16.30;99.90
50947;DHT22;36955;47.416;7.716;2023-01-01T05:34:22;16.30;99.90
50947;DHT22;36955;47.416;7.716;2023-01-01T05:36:48;16.40;99.90
50947;DHT22;36955;47.416;7.716;2023-01-01T05:39:14;16.30;99.90
50947;DHT22;36955;47.416;7.716;2023-01-01T05:41:40;16.40;99.90
50947;DHT22;36955;47.416;7.716;2023-01-01T05:44:07;16.40;99.90
50947;DHT22;36955;47.416;7.716;2023-01-01T05:46:33;16.20;99.90
50947;DHT22;36955;47.416;7.716;2023-01-01T05:48:59;16.30;99.90
50947;DHT22;36955;47.416;7.716;2023-01-01T05:51:27;16.40;99.90
50947;DHT22;36955;47.416;7.716;2023-01-01T05:53:54;16.50;99.90
50947;DHT22;36955;47.416;7.716;2023-01-01T05:56:21;16.50;99.90
50947;DHT22;36955;47.416;7.716;2023-01-01T05:58:47;16.40;99.90
50947;DHT22;36955;47.416;7.716;2023-01-01T06:01:15;16.40;99.90
50947;DHT22;36955;47.416;7.716;2023-01-01T06:03:42;16.30;99.90
50947;DHT22;36955;47.416;7.716;2023-01-01T06:06:11;16.40;99.90
50947;DHT22;36955;47.416;7.716;2023-01-01T06:08:38;16.40;99.90
50947;DHT22;36955;47.416;7.716;2023-01-01T06:11:07;16.30;99.90
50947;DHT22;36955;47.416;7.716;2023-01-01T06:13:33;16.30;99.90
50947;DHT22;36955;47.416;7.716;2023-01-01T06:16:00;16.30;99.90
50947;DHT22;36955;47.416;7.716;2023-01-01T06:18:32;16.40;99.90
50947;DHT22;36955;47.416;7.716;2023-01-01T06:21:09;16.30;99.90
50947;DHT22;36955;47.416;7.716;2023-01-01T06:23:36;16.30;99.90
50947;DHT22;36955;47.416;7.716;2023-01-01T06:26:14;16.30;99.90
50947;DHT22;36955;47.416;7.716;2023-01-01T06:28:42;16.30;99.90
50947;DHT22;36955;47.416;7.716;2023-01-01T06:31:09;16.40;99.90
50947;DHT22;36955;47.416;7.716;2023-01-01T06:33:36;16.50;99.90
50947;DHT22;36955;47.416;7.716;2023-01-01T06:36:05;16.50;99.90
50947;DHT22;36955;47.416;7.716;2023-01-01T06:38:33;16.60;99.90
50947;DHT22;36955;47.416;7.716;2023-01-01T06:41:02;16.50;99.90
50947;DHT22;36955;47.416;7.716;2023-01-01T06:43:30;16.50;99.90
50947;DHT22;36955;47.416;7.716;2023-01-01T06:46:05;16.50;99.90
50947;DHT22;36955;47.416;7.716;2023-01-01T06:48:34;16.50;99.90
50947;DHT22;36955;47.416;7.716;2023-01-01T06:51:11;16.50;99.90
50947;DHT22;36955;47.416;7.716;2023-01-01T06:53:38;16.50;99.90
50947;DHT22;36955;47.416;7.716;2023-01-01T06:56:04;16.40;99.90
50947;DHT22;36955;47.416;7.716;2023-01-01T06:58:31;16.30;99.90
50947;DHT22;36955;47.416;7.716;2023-01-01T07:01:14;16.30;99.90
50947;DHT22;36955;47.416;7.716;2023-01-01T07:03:41;16.30;99.90
50947;DHT22;36955;47.416;7.716;2023-01-01T07:06:08;16.20;99.90
50947;DHT22;36955;47.416;7.716;2023-01-01T07:08:34;16.20;99.90
50947;DHT22;36955;47.416;7.716;2023-01-01T07:11:01;16.10;99.90
50947;DHT22;36955;47.416;7.716;2023-01-01T07:13:28;16.00;99.90
50947;DHT22;36955;47.416;7.716;2023-01-01T07:15:55;16.00;99.90
50947;DHT22;36955;47.416;7.716;2023-01-01T07:18:22;16.10;99.90
50947;DHT22;36955;47.416;7.716;2023-01-01T07:20:59;16.00;99.90
50947;DHT22;36955;47.416;7.716;2023-01-01T07:23:27;16.20;99.90
50947;DHT22;36955;47.416;7.716;2023-01-01T07:25:53;16.20;99.90
50947;DHT22;36955;47.416;7.716;2023-01-01T07:28:20;16.10;99.90
50947;DHT22;36955;47.416;7.716;2023-01-01T07:30:47;16.10;99.90
50947;DHT22;36955;47.416;7.716;2023-01-01T07:33:16;16.20;99.90
50947;DHT22;36955;47.416;7.716;2023-01-01T07:35:43;16.20;99.90
50947;DHT22;36955;47.416;7.716;2023-01-01T07:38:09;16.20;99.90
50947;DHT22;36955;47.416;7.716;2023-01-01T07:40:36;16.10;99.90
50947;DHT22;36955;47.416;7.716;2023-01-01T07:43:02;16.10;99.90
50947;DHT22;36955;47.416;7.716;2023-01-01T07:45:28;16.30;99.90
50947;DHT22;36955;47.416;7.716;2023-01-01T07:47:56;16.30;99.90
50947;DHT22;36955;47.416;7.716;2023-01-01T07:50:24;16.40;99.90
50947;DHT22;36955;47.416;7.716;2023-01-01T07:52:50;16.50;99.90
50947;DHT22;36955;47.416;7.716;2023-01-01T07:55:17;16.60;99.90
50947;DHT22;36955;47.416;7.716;2023-01-01T07:57:44;16.60;99.90
50947;DHT22;36955;47.416;7.716;2023-01-01T08:00:13;16.60;99.90
50947;DHT22;36955;47.416;7.716;2023-01-01T08:02:40;16.50;99.90
50947;DHT22;36955;47.416;7.716;2023-01-01T08:05:06;16.40;99.90
50947;DHT22;36955;47.416;7.716;2023-01-01T08:07:33;16.30;99.90
50947;DHT22;36955;47.416;7.716;2023-01-01T08:09:59;16.30;99.90
50947;DHT22;36955;47.416;7.716;2023-01-01T08:12:25;16.20;99.90
50947;DHT22;36955;47.416;7.716;2023-01-01T08:14:51;16.20;99.90
50947;DHT22;36955;47.416;7.716;2023-01-01T08:17:17;16.20;99.90
50947;DHT22;36955;47.416;7.716;2023-01-01T08:19:43;16.00;99.90
50947;DHT22;36955;47.416;7.716;2023-01-01T08:22:10;16.00;99.90
50947;DHT22;36955;47.416;7.716;2023-01-01T08:24:36;16.10;99.90
50947;DHT22;36955;47.416;7.716;2023-01-01T08:27:02;16.10;99.90
50947;DHT22;36955;47.416;7.716;2023-01-01T08:29:28;16.00;99.90
50947;DHT22;36955;47.416;7.716;2023-01-01T08:31:54;16.10;99.90
50947;DHT22;36955;47.416;7.716;2023-01-01T08:34:20;16.20;99.90
50947;DHT22;36955;47.416;7.716;2023-01-01T08:36:46;16.40;99.90
50947;DHT22;36955;47.416;7.716;2023-01-01T08:39:12;16.50;99.90
50947;DHT22;36955;47.416;7.716;2023-01-01T08:41:38;16.60;99.90
50947;DHT22;36955;47.416;7.716;2023-01-01T08:44:04;16.60;99.90
50947;DHT22;36955;47.416;7.716;2023-01-01T08:46:30;16.60;99.90
50947;DHT22;36955;47.416;7.716;2023-01-01T08:48:57;16.70;99.90
50947;DHT22;36955;47.416;7.716;2023-01-01T08:51:23;16.80;99.90
50947;DHT22;36955;47.416;7.716;2023-01-01T08:53:49;16.80;99.90
50947;DHT22;36955;47.416;7.716;2023-01-01T08:56:15;16.80;99.90
50947;DHT22;36955;47.416;7.716;2023-01-01T08:58:41;16.70;99.90
50947;DHT22;36955;47.416;7.716;2023-01-01T09:01:08;16.60;99.90
50947;DHT22;36955;47.416;7.716;2023-01-01T09:03:35;16.60;99.90
50947;DHT22;36955;47.416;7.716;2023-01-01T09:06:01;16.70;99.90
50947;DHT22;36955;47.416;7.716;2023-01-01T09:08:27;16.60;99.90
50947;DHT22;36955;47.416;7.716;2023-01-01T09:10:57;16.60;99.90
50947;DHT22;36955;47.416;7.716;2023-01-01T09:13:24;16.50;99.90
50947;DHT22;36955;47.416;7.716;2023-01-01T09:15:50;16.60;99.90
50947;DHT22;36955;47.416;7.716;2023-01-01T09:18:16;16.60;99.90
50947;DHT22;36955;47.416;7.716;2023-01-01T09:20:42;16.60;99.90
50947;DHT22;36955;47.416;7.716;2023-01-01T09:23:09;16.60;99.90
50947;DHT22;36955;47.416;7.716;2023-01-01T09:25:36;16.70;99.90
50947;DHT22;36955;47.416;7.716;2023-01-01T09:28:05;16.70;99.90
50947;DHT22;36955;47.416;7.716;2023-01-01T09:30:33;16.70;99.90
50947;DHT22;36955;47.416;7.716;2023-01-01T09:33:00;16.80;99.90
50947;DHT22;36955;47.416;7.716;2023-01-01T09:35:26;16.70;99.90
50947;DHT22;36955;47.416;7.716;2023-01-01T09:37:52;16.70;99.90
50947;DHT22;36955;47.416;7.716;2023-01-01T09:40:32;16.80;99.90
50947;DHT22;36955;47.416;7.716;2023-01-01T09:43:20;17.00;99.90
50947;DHT22;36955;47.416;7.716;2023-01-01T09:46:01;17.10;99.90
50947;DHT22;36955;47.416;7.716;2023-01-01T09:48:30;17.20;99.90
50947;DHT22;36955;47.416;7.716;2023-01-01T09:50:58;17.20;99.90
50947;DHT22;36955;47.416;7.716;2023-01-01T09:53:43;17.20;99.90
50947;DHT22;36955;47.416;7.716;2023-01-01T09:56:14;17.20;99.90
50947;DHT22;36955;47.416;7.716;2023-01-01T09:58:43;17.20;99.90
50947;DHT22;36955;47.416;7.716;2023-01-01T10:09:54;17.10;99.90
50947;DHT22;36955;47.416;7.716;2023-01-01T10:12:58;17.20;99.90
50947;DHT22;36955;47.416;7.716;2023-01-01T10:15:39;17.10;99.90
50947;DHT22;36955;47.416;7.716;2023-01-01T10:18:18;17.00;99.90
50947;DHT22;36955;47.416;7.716;2023-01-01T10:20:51;17.00;99.90
50947;DHT22;36955;47.416;7.716;2023-01-01T10:23:25;17.00;99.90
50947;DHT22;36955;47.416;7.716;2023-01-01T10:25:55;17.00;99.90
50947;DHT22;36955;47.416;7.716;2023-01-01T10:33:56;17.00;99.90
50947;DHT22;36955;47.416;7.716;2023-01-01T10:36:22;16.90;99.90
50947;DHT22;36955;47.416;7.716;2023-01-01T10:38:49;16.90;99.90
50947;DHT22;36955;47.416;7.716;2023-01-01T10:41:16;16.90;99.90
50947;DHT22;36955;47.416;7.716;2023-01-01T10:43:43;16.90;99.90
50947;DHT22;36955;47.416;7.716;2023-01-01T10:46:12;17.00;99.90
50947;DHT22;36955;47.416;7.716;2023-01-01T10:49:06;17.00;99.90
50947;DHT22;36955;47.416;7.716;2023-01-01T10:51:36;17.00;99.90
50947;DHT22;36955;47.416;7.716;2023-01-01T10:54:02;17.10;99.90
50947;DHT22;36955;47.416;7.716;2023-01-01T10:56:39;17.20;99.90
50947;DHT22;36955;47.416;7.716;2023-01-01T10:59:32;17.30;99.90
50947;DHT22;36955;47.416;7.716;2023-01-01T11:02:25;17.20;99.90
50947;DHT22;36955;47.416;7.716;2023-01-01T11:05:11;17.10;99.90
50947;DHT22;36955;47.416;7.716;2023-01-01T11:07:40;17.10;99.90
50947;DHT22;36955;47.416;7.716;2023-01-01T11:10:19;17.10;99.90
50947;DHT22;36955;47.416;7.716;2023-01-01T11:12:45;17.20;99.90
50947;DHT22;36955;47.416;7.716;2023-01-01T11:15:41;17.30;99.90
50947;DHT22;36955;47.416;7.716;2023-01-01T11:18:21;17.30;99.90
50947;DHT22;36955;47.416;7.716;2023-01-01T11:20:53;17.40;99.90
50947;DHT22;36955;47.416;7.716;2023-01-01T11:28:37;17.60;99.90
50947;DHT22;36955;47.416;7.716;2023-01-01T11:31:15;17.60;99.90
50947;DHT22;36955;47.416;7.716;2023-01-01T11:36:10;17.70;99.90
50947;DHT22;36955;47.416;7.716;2023-01-01T11:38:36;17.70;99.90
50947;DHT22;36955;47.416;7.716;2023-01-01T11:41:04;17.70;99.90
50947;DHT22;36955;47.416;7.716;2023-01-01T11:43:39;17.70;99.90
50947;DHT22;36955;47.416;7.716;2023-01-01T11:46:12;17.80;99.90
50947;DHT22;36955;47.416;7.716;2023-01-01T11:48:42;17.90;99.90
50947;DHT22;36955;47.416;7.716;2023-01-01T11:51:10;17.90;99.90
50947;DHT22;36955;47.416;7.716;2023-01-01T11:53:40;17.90;99.90
50947;DHT22;36955;47.416;7.716;2023-01-01T11:56:14;18.00;99.90
50947;DHT22;36955;47.416;7.716;2023-01-01T11:59:09;18.00;99.90
50947;DHT22;36955;47.416;7.716;2023-01-01T12:01:53;18.00;99.90
50947;DHT22;36955;47.416;7.716;2023-01-01T12:04:35;18.10;99.90
50947;DHT22;36955;47.416;7.716;2023-01-01T12:07:08;18.10;99.90
50947;DHT22;36955;47.416;7.716;2023-01-01T12:10:01;18.20;99.90
50947;DHT22;36955;47.416;7.716;2023-01-01T12:12:58;18.20;99.90
50947;DHT22;36955;47.416;7.716;2023-01-01T12:15:55;18.20;99.90
50947;DHT22;36955;47.416;7.716;2023-01-01T12:18:47;18.30;99.90
50947;DHT22;36955;47.416;7.716;2023-01-01T12:21:24;18.20;99.90
50947;DHT22;36955;47.416;7.716;2023-01-01T12:23:50;18.30;99.90
50947;DHT22;36955;47.416;7.716;2023-01-01T12:37:56;18.40;99.90
50947;DHT22;36955;47.416;7.716;2023-01-01T12:43:08;18.40;99.90
50947;DHT22;36955;47.416;7.716;2023-01-01T12:59:01;18.10;99.90
50947;DHT22;36955;47.416;7.716;2023-01-01T13:01:30;18.00;99.90
50947;DHT22;36955;47.416;7.716;2023-01-01T13:04:02;18.00;99.90
50947;DHT22;36955;47.416;7.716;2023-01-01T13:06:54;18.00;99.90
50947;DHT22;36955;47.416;7.716;2023-01-01T13:09:26;18.00;99.90
50947;DHT22;36955;47.416;7.716;2023-01-01T13:11:59;18.10;99.90
50947;DHT22;36955;47.416;7.716;2023-01-01T13:14:26;18.20;99.90
50947;DHT22;36955;47.416;7.716;2023-01-01T13:16:54;18.20;99.90
50947;DHT22;36955;47.416;7.716;2023-01-01T13:19:30;18.20;99.90
50947;DHT22;36955;47.416;7.716;2023-01-01T13:21:56;18.20;99.90
50947;DHT22;36955;47.416;7.716;2023-01-01T13:24:24;18.10;99.90
50947;DHT22;36955;47.416;7.716;2023-01-01T13:26:51;18.10;99.90
50947;DHT22;36955;47.416;7.716;2023-01-01T13:34:32;17.80;99.90
50947;DHT22;36955;47.416;7.716;2023-01-01T13:40:30;17.70;99.90
50947;DHT22;36955;47.416;7.716;2023-01-01T13:53:17;17.50;99.90
50947;DHT22;36955;47.416;7.716;2023-01-01T13:55:58;17.50;99.90
50947;DHT22;36955;47.416;7.716;2023-01-01T14:04:01;17.40;99.90
50947;DHT22;36955;47.416;7.716;2023-01-01T14:06:38;17.30;99.90
50947;DHT22;36955;47.416;7.716;2023-01-01T14:09:13;17.20;99.90
50947;DHT22;36955;47.416;7.716;2023-01-01T14:11:40;17.10;99.90
50947;DHT22;36955;47.416;7.716;2023-01-01T14:14:35;17.00;99.90
50947;DHT22;36955;47.416;7.716;2023-01-01T14:17:05;16.90;99.90
50947;DHT22;36955;47.416;7.716;2023-01-01T14:19:32;16.80;99.90
50947;DHT22;36955;47.416;7.716;2023-01-01T14:21:58;16.60;99.90
50947;DHT22;36955;47.416;7.716;2023-01-01T14:24:25;16.40;99.90
50947;DHT22;36955;47.416;7.716;2023-01-01T14:26:52;16.40;99.90
50947;DHT22;36955;47.416;7.716;2023-01-01T14:29:26;16.20;99.90
50947;DHT22;36955;47.416;7.716;2023-01-01T14:31:57;16.00;99.90
50947;DHT22;36955;47.416;7.716;2023-01-01T14:34:32;15.90;99.90
50947;DHT22;36955;47.416;7.716;2023-01-01T14:37:00;15.90;99.90
50947;DHT22;36955;47.416;7.716;2023-01-01T14:39:34;15.80;99.90
50947;DHT22;36955;47.416;7.716;2023-01-01T14:42:06;15.80;99.90
50947;DHT22;36955;47.416;7.716;2023-01-01T14:44:38;15.70;99.90
50947;DHT22;36955;47.416;7.716;2023-01-01T14:47:26;15.50;99.90
50947;DHT22;36955;47.416;7.716;2023-01-01T14:50:02;15.30;99.90
50947;DHT22;36955;47.416;7.716;2023-01-01T14:52:29;15.10;99.90
50947;DHT22;36955;47.416;7.716;2023-01-01T14:54:56;15.00;99.90
50947;DHT22;36955;47.416;7.716;2023-01-01T14:57:26;15.00;99.90
50947;DHT22;36955;47.416;7.716;2023-01-01T14:59:52;14.90;99.90
50947;DHT22;36955;47.416;7.716;2023-01-01T15:02:26;14.80;99.90
50947;DHT22;36955;47.416;7.716;2023-01-01T15:04:52;14.70;99.90
50947;DHT22;36955;47.416;7.716;2023-01-01T15:07:24;14.50;99.90
50947;DHT22;36955;47.416;7.716;2023-01-01T15:09:53;14.50;99.90
50947;DHT22;36955;47.416;7.716;2023-01-01T15:12:20;14.40;99.90
50947;DHT22;36955;47.416;7.716;2023-01-01T15:14:47;14.30;99.90
50947;DHT22;36955;47.416;7.716;2023-01-01T15:17:19;14.10;99.90
50947;DHT22;36955;47.416;7.716;2023-01-01T15:22:51;13.90;99.90
50947;DHT22;36955;47.416;7.716;2023-01-01T15:25:19;13.90;99.90
50947;DHT22;36955;47.416;7.716;2023-01-01T15:27:50;13.90;99.90
50947;DHT22;36955;47.416;7.716;2023-01-01T15:30:25;14.00;99.90
50947;DHT22;36955;47.416;7.716;2023-01-01T15:32:52;14.00;99.90
50947;DHT22;36955;47.416;7.716;2023-01-01T15:35:30;14.00;99.90
50947;DHT22;36955;47.416;7.716;2023-01-01T15:38:09;14.00;99.90
50947;DHT22;36955;47.416;7.716;2023-01-01T15:40:36;14.00;99.90
50947;DHT22;36955;47.416;7.716;2023-01-01T15:45:34;13.80;99.90
50947;DHT22;36955;47.416;7.716;2023-01-01T15:50:40;13.70;99.90
50947;DHT22;36955;47.416;7.716;2023-01-01T15:53:24;13.60;99.90
50947;DHT22;36955;47.416;7.716;2023-01-01T15:55:58;13.50;99.90
50947;DHT22;36955;47.416;7.716;2023-01-01T15:58:38;13.50;99.90
50947;DHT22;36955;47.416;7.716;2023-01-01T16:01:08;13.40;99.90
50947;DHT22;36955;47.416;7.716;2023-01-01T16:03:37;13.40;99.90
50947;DHT22;36955;47.416;7.716;2023-01-01T16:06:04;13.40;99.90
50947;DHT22;36955;47.416;7.716;2023-01-01T16:08:30;13.50;99.90
50947;DHT22;36955;47.416;7.716;2023-01-01T16:10:56;13.60;99.90
50947;DHT22;36955;47.416;7.716;2023-01-01T16:13:22;13.60;99.90
50947;DHT22;36955;47.416;7.716;2023-01-01T16:15:49;13.60;99.90
50947;DHT22;36955;47.416;7.716;2023-01-01T16:18:19;13.60;99.90
50947;DHT22;36955;47.416;7.716;2023-01-01T16:20:45;13.50;99.90
50947;DHT22;36955;47.416;7.716;2023-01-01T16:23:11;13.50;99.90
50947;DHT22;36955;47.416;7.716;2023-01-01T16:25:37;13.50;99.90
50947;DHT22;36955;47.416;7.716;2023-01-01T16:28:03;13.50;99.90
50947;DHT22;36955;47.416;7.716;2023-01-01T16:30:30;13.50;99.90
50947;DHT22;36955;47.416;7.716;2023-01-01T16:32:56;13.60;99.90
50947;DHT22;36955;47.416;7.716;2023-01-01T16:35:22;13.70;99.90
50947;DHT22;36955;47.416;7.716;2023-01-01T16:37:49;13.70;99.90
50947;DHT22;36955;47.416;7.716;2023-01-01T16:40:15;13.60;99.90
50947;DHT22;36955;47.416;7.716;2023-01-01T16:42:41;13.60;99.90
50947;DHT22;36955;47.416;7.716;2023-01-01T16:45:16;13.60;99.90
50947;DHT22;36955;47.416;7.716;2023-01-01T16:47:42;13.60;99.90
50947;DHT22;36955;47.416;7.716;2023-01-01T16:50:09;13.60;99.90
50947;DHT22;36955;47.416;7.716;2023-01-01T16:52:36;13.70;99.90
50947;DHT22;36955;47.416;7.716;2023-01-01T16:55:02;13.80;99.90
50947;DHT22;36955;47.416;7.716;2023-01-01T16:57:28;13.70;99.90
50947;DHT22;36955;47.416;7.716;2023-01-01T16:59:54;13.70;99.90
50947;DHT22;36955;47.416;7.716;2023-01-01T17:02:20;13.80;99.90
50947;DHT22;36955;47.416;7.716;2023-01-01T17:04:46;13.80;99.90
50947;DHT22;36955;47.416;7.716;2023-01-01T17:07:12;13.70;99.90
50947;DHT22;36955;47.416;7.716;2023-01-01T17:09:38;13.70;99.90
50947;DHT22;36955;47.416;7.716;2023-01-01T17:12:04;13.80;99.90
50947;DHT22;36955;47.416;7.716;2023-01-01T17:14:30;13.80;99.90
50947;DHT22;36955;47.416;7.716;2023-01-01T17:16:56;13.70;99.90
50947;DHT22;36955;47.416;7.716;2023-01-01T17:19:22;13.80;99.90
50947;DHT22;36955;47.416;7.716;2023-01-01T17:21:49;13.80;99.90
50947;DHT22;36955;47.416;7.716;2023-01-01T17:24:16;13.70;99.90
50947;DHT22;36955;47.416;7.716;2023-01-01T17:26:43;13.70;99.90
50947;DHT22;36955;47.416;7.716;2023-01-01T17:29:09;13.60;99.90
50947;DHT22;36955;47.416;7.716;2023-01-01T17:31:35;13.60;99.90
50947;DHT22;36955;47.416;7.716;2023-01-01T17:34:01;13.60;99.90